Time;durP1;ratioP1;P1;durP2;ratioP2;P2;SDS_P1;SDS_P2;PMS_P1;PMS_P2;Temp;Humidity;BMP_temperature;BMP_pressure;BME280_temperature;BME280_humidity;BME280_pressure;Samples;Min_cycle;Max_cycle;Signal;HPM_P1;HPM_P2
2021/03/26 00:01:06;;;;;;;22.33;19.90;;;;;;;;;;5103690;27;20622;-42
2021/03/26 00:03:32;;;;;;;21.73;19.20;;;;;;;;;;5102383;28;20195;-43
2021/03/26 00:06:03;;;;;;;23.30;20.03;;;;;;;;;;5109935;28;20593;-43
2021/03/26 00:08:28;;;;;;;23.93;21.47;;;;;;;;;;5109140;28;20671;-44
2021/03/26 00:10:54;;;;;;;26.67;22.10;;;;;;;;;;5109830;28;20634;-42
2021/03/26 00:13:19;;;;;;;25.13;21.57;;;;;;;;;;5108176;28;20693;-43
2021/03/26 00:15:45;;;;;;;26.10;22.83;;;;;;;;;;5108408;28;20684;-44
2021/03/26 00:18:10;;;;;;;26.20;21.83;;;;;;;;;;5108421;28;20259;-43
2021/03/26 00:20:35;;;;;;;24.83;21.80;;;;;;;;;;5108598;28;20602;-44
2021/03/26 00:23:01;;;;;;;24.27;21.73;;;;;;;;;;5107402;28;20181;-45
2021/03/26 00:25:26;;;;;;;22.90;20.50;;;;;;;;;;5106730;27;20187;-44
2021/03/26 00:27:52;;;;;;;27.10;22.10;;;;;;;;;;5108591;28;20205;-44
2021/03/26 00:30:18;;;;;;;26.07;23.33;;;;;;;;;;5107713;28;20179;-44
2021/03/26 00:32:43;;;;;;;27.23;22.07;;;;;;;;;;5108483;28;20751;-44
2021/03/26 00:35:10;;;;;;;27.37;22.40;;;;;;;;;;5106970;28;20267;-42
2021/03/26 00:37:35;;;;;;;29.53;22.73;;;;;;;;;;5106520;28;20195;-42
2021/03/26 00:40:00;;;;;;;27.07;23.03;;;;;;;;;;5104280;28;20790;-43
2021/03/26 00:42:25;;;;;;;27.60;22.20;;;;;;;;;;5108189;28;20259;-43
2021/03/26 00:44:51;;;;;;;23.90;21.33;;;;;;;;;;5108643;28;20178;-47
2021/03/26 00:47:16;;;;;;;28.80;22.77;;;;;;;;;;5102976;28;20750;-44
2021/03/26 00:49:41;;;;;;;27.03;22.03;;;;;;;;;;5107483;28;20600;-43
2021/03/26 00:52:06;;;;;;;24.80;21.83;;;;;;;;;;5105013;28;20235;-43
2021/03/26 00:54:31;;;;;;;23.90;21.40;;;;;;;;;;5105165;27;20227;-43
2021/03/26 00:56:57;;;;;;;23.50;20.97;;;;;;;;;;5108530;28;20270;-43
2021/03/26 00:59:22;;;;;;;27.00;22.60;;;;;;;;;;5102942;27;20171;-43
2021/03/26 01:01:47;;;;;;;27.83;22.77;;;;;;;;;;5104811;27;20202;-42
2021/03/26 01:04:12;;;;;;;23.83;21.33;;;;;;;;;;5105405;27;20734;-43
2021/03/26 01:06:37;;;;;;;24.35;21.30;;;;;;;;;;5107108;28;20230;-43
2021/03/26 01:09:03;;;;;;;24.27;20.60;;;;;;;;;;5105252;27;20700;-42
2021/03/26 01:11:30;;;;;;;26.10;22.10;;;;;;;;;;5107175;28;20669;-43
2021/03/26 01:13:56;;;;;;;24.83;22.03;;;;;;;;;;5108124;28;20640;-43
2021/03/26 01:16:23;;;;;;;24.97;21.00;;;;;;;;;;5104787;28;21207;-42
2021/03/26 01:18:49;;;;;;;26.10;21.87;;;;;;;;;;5104973;28;20227;-44
2021/03/26 01:21:20;;;;;;;24.77;21.50;;;;;;;;;;5103173;28;20591;-43
2021/03/26 01:23:46;;;;;;;25.30;21.23;;;;;;;;;;5107449;28;20188;-44
2021/03/26 01:26:11;;;;;;;24.27;21.53;;;;;;;;;;5101972;28;20590;-43
2021/03/26 01:28:36;;;;;;;25.33;20.93;;;;;;;;;;5108016;28;20172;-43
2021/03/26 01:31:02;;;;;;;24.90;21.77;;;;;;;;;;5107672;28;20250;-43
2021/03/26 01:33:28;;;;;;;26.13;22.07;;;;;;;;;;5102952;28;20197;-44
2021/03/26 01:35:54;;;;;;;26.63;21.03;;;;;;;;;;5106071;28;21150;-44
2021/03/26 01:38:19;;;;;;;24.83;21.37;;;;;;;;;;5101616;28;20249;-44
2021/03/26 01:40:45;;;;;;;25.73;20.55;;;;;;;;;;5108165;28;20186;-44
2021/03/26 01:43:19;;;;;;;24.77;21.90;;;;;;;;;;5105967;28;20673;-43
2021/03/26 01:45:44;;;;;;;23.73;21.23;;;;;;;;;;5112308;28;20711;-42
2021/03/26 01:48:10;;;;;;;29.37;24.90;;;;;;;;;;5103412;28;20722;-42
2021/03/26 01:50:36;;;;;;;27.23;23.17;;;;;;;;;;5107811;28;20185;-43
2021/03/26 01:53:01;;;;;;;24.57;21.97;;;;;;;;;;5111832;28;20635;-42
2021/03/26 01:55:29;;;;;;;32.93;23.47;;;;;;;;;;5111407;28;20228;-42
2021/03/26 01:57:54;;;;;;;21.97;19.63;;;;;;;;;;5112019;28;20536;-43
2021/03/26 02:00:29;;;;;;;24.43;20.33;;;;;;;;;;5110908;28;20584;-42
2021/03/26 02:02:54;;;;;;;22.97;20.67;;;;;;;;;;5108923;28;20221;-42
2021/03/26 02:05:23;;;;;;;22.53;19.70;;;;;;;;;;5111749;28;20605;-42
2021/03/26 02:07:48;;;;;;;22.97;20.03;;;;;;;;;;5111415;28;20178;-42
2021/03/26 02:10:13;;;;;;;23.80;20.13;;;;;;;;;;5111565;28;20605;-42
2021/03/26 02:12:39;;;;;;;24.10;19.43;;;;;;;;;;5103175;28;20240;-42
2021/03/26 02:15:10;;;;;;;23.90;20.40;;;;;;;;;;5103167;28;20253;-42
2021/03/26 02:17:39;;;;;;;22.80;19.60;;;;;;;;;;5103599;28;20617;-43
2021/03/26 02:20:07;;;;;;;26.43;22.53;;;;;;;;;;5111371;28;20810;-43
2021/03/26 02:22:33;;;;;;;40.17;31.00;;;;;;;;;;5110797;28;20599;-42
2021/03/26 02:24:58;;;;;;;41.63;30.67;;;;;;;;;;5111607;28;20639;-43
2021/03/26 02:27:30;;;;;;;35.90;27.63;;;;;;;;;;5109633;28;20166;-42
2021/03/26 02:29:55;;;;;;;33.17;26.20;;;;;;;;;;5107124;28;20178;-42
2021/03/26 02:32:23;;;;;;;29.53;23.73;;;;;;;;;;5111404;28;21321;-43
2021/03/26 02:35:07;;;;;;;26.37;21.73;;;;;;;;;;5110737;28;20194;-43
2021/03/26 02:37:32;;;;;;;24.17;20.23;;;;;;;;;;5108133;28;20588;-42
2021/03/26 02:39:58;;;;;;;27.97;21.93;;;;;;;;;;5110704;27;21048;-43
2021/03/26 02:42:26;;;;;;;26.00;20.70;;;;;;;;;;5108722;28;20166;-43
2021/03/26 02:44:54;;;;;;;25.60;21.43;;;;;;;;;;5108265;28;20177;-43
2021/03/26 02:47:30;;;;;;;24.30;21.47;;;;;;;;;;5110052;28;20653;-42
2021/03/26 02:50:01;;;;;;;31.97;22.80;;;;;;;;;;5102453;28;20580;-42
2021/03/26 02:52:32;;;;;;;28.40;23.27;;;;;;;;;;5110728;28;21021;-42
2021/03/26 02:55:06;;;;;;;24.90;21.10;;;;;;;;;;5107668;28;21160;-43
2021/03/26 02:57:34;;;;;;;31.33;23.57;;;;;;;;;;5109543;28;20595;-43
2021/03/26 03:00:03;;;;;;;26.57;22.53;;;;;;;;;;5106869;28;20627;-42
2021/03/26 03:02:29;;;;;;;29.40;22.17;;;;;;;;;;5109691;28;21213;-42
2021/03/26 03:05:09;;;;;;;30.13;22.87;;;;;;;;;;5107664;28;20651;-42
2021/03/26 03:07:37;;;;;;;26.90;21.63;;;;;;;;;;5107213;28;20594;-42
2021/03/26 03:10:21;;;;;;;27.13;22.10;;;;;;;;;;5106407;28;20588;-49
2021/03/26 03:12:46;;;;;;;26.90;21.80;;;;;;;;;;5109525;28;20732;-42
2021/03/26 03:15:15;;;;;;;25.73;22.20;;;;;;;;;;5108898;28;21238;-42
2021/03/26 03:17:42;;;;;;;26.40;21.83;;;;;;;;;;5104376;28;20209;-42
2021/03/26 03:20:12;;;;;;;25.27;21.53;;;;;;;;;;5110490;28;20608;-43
2021/03/26 03:22:39;;;;;;;27.50;21.60;;;;;;;;;;5110630;28;20644;-42
2021/03/26 03:25:08;;;;;;;25.93;20.93;;;;;;;;;;5105186;28;20656;-42
2021/03/26 03:27:39;;;;;;;25.07;20.67;;;;;;;;;;5106032;28;21190;-43
2021/03/26 03:30:10;;;;;;;25.30;20.53;;;;;;;;;;5109018;28;21161;-44
2021/03/26 03:32:39;;;;;;;27.70;21.00;;;;;;;;;;5108830;28;20601;-43
2021/03/26 03:35:07;;;;;;;25.10;21.37;;;;;;;;;;5108477;28;20922;-43
2021/03/26 03:37:35;;;;;;;23.23;20.60;;;;;;;;;;5106000;28;20648;-43
2021/03/26 03:40:12;;;;;;;25.93;22.23;;;;;;;;;;5109546;28;20963;-43
2021/03/26 03:42:46;;;;;;;29.60;22.80;;;;;;;;;;5110597;28;20597;-43
2021/03/26 03:45:20;;;;;;;28.37;23.30;;;;;;;;;;5107769;28;20592;-43
2021/03/26 03:47:50;;;;;;;29.00;21.53;;;;;;;;;;5105730;28;20602;-42
2021/03/26 03:50:23;;;;;;;25.17;22.37;;;;;;;;;;5102687;28;20693;-43
2021/03/26 03:53:07;;;;;;;28.07;21.67;;;;;;;;;;5109707;28;20689;-43
2021/03/26 03:55:41;;;;;;;24.97;22.20;;;;;;;;;;5103017;28;20648;-43
2021/03/26 03:58:19;;;;;;;31.33;21.20;;;;;;;;;;5109364;28;20589;-43
2021/03/26 04:00:59;;;;;;;22.43;18.90;;;;;;;;;;5110580;27;21154;-43
2021/03/26 04:03:30;;;;;;;26.20;20.80;;;;;;;;;;5102743;28;20600;-43
2021/03/26 04:06:00;;;;;;;25.40;21.30;;;;;;;;;;5109614;28;20958;-44
2021/03/26 04:08:31;;;;;;;25.93;20.97;;;;;;;;;;5108210;28;20598;-43
2021/03/26 04:11:10;;;;;;;26.90;21.83;;;;;;;;;;5109973;28;21209;-44
2021/03/26 04:13:38;;;;;;;29.60;22.13;;;;;;;;;;5101865;28;20628;-44
2021/03/26 04:16:04;;;;;;;29.10;20.80;;;;;;;;;;5109026;28;20649;-43
2021/03/26 04:18:39;;;;;;;28.50;22.00;;;;;;;;;;5108426;28;20602;-43
2021/03/26 04:21:04;;;;;;;26.93;21.83;;;;;;;;;;5106085;28;20207;-43
2021/03/26 04:23:31;;;;;;;25.10;20.40;;;;;;;;;;5104311;28;20655;-43
2021/03/26 04:26:14;;;;;;;26.77;20.60;;;;;;;;;;5109328;28;20176;-43
2021/03/26 04:28:43;;;;;;;24.90;20.20;;;;;;;;;;5108735;28;20598;-43
2021/03/26 04:31:11;;;;;;;26.50;22.20;;;;;;;;;;5108834;28;21008;-43
2021/03/26 04:33:36;;;;;;;25.13;20.90;;;;;;;;;;5108850;28;20745;-43
2021/03/26 04:36:03;;;;;;;29.57;19.20;;;;;;;;;;5106777;28;20715;-43
2021/03/26 04:38:39;;;;;;;26.23;20.20;;;;;;;;;;5107299;28;20224;-44
2021/03/26 04:41:15;;;;;;;25.27;20.03;;;;;;;;;;5107808;28;20608;-43
2021/03/26 04:44:06;;;;;;;27.00;19.67;;;;;;;;;;5109177;28;20643;-43
2021/03/26 04:46:39;;;;;;;23.10;19.30;;;;;;;;;;5102702;28;20724;-42
2021/03/26 04:49:17;;;;;;;22.83;19.50;;;;;;;;;;5104446;28;20598;-42
2021/03/26 04:51:50;;;;;;;26.60;20.10;;;;;;;;;;5108113;28;20603;-42
2021/03/26 04:54:20;;;;;;;24.10;20.70;;;;;;;;;;5108377;28;20639;-42
2021/03/26 04:56:47;;;;;;;24.67;20.00;;;;;;;;;;5105500;28;20600;-42
2021/03/26 04:59:13;;;;;;;25.87;20.60;;;;;;;;;;5107630;28;20591;-42
2021/03/26 05:01:41;;;;;;;26.37;20.40;;;;;;;;;;5103943;28;21019;-42
2021/03/26 05:04:13;;;;;;;26.77;22.63;;;;;;;;;;5096441;28;20599;-42
2021/03/26 05:06:41;;;;;;;26.90;22.20;;;;;;;;;;5106466;28;20687;-42
2021/03/26 05:09:29;;;;;;;26.50;22.20;;;;;;;;;;5108591;28;20603;-42
2021/03/26 05:11:59;;;;;;;29.53;24.20;;;;;;;;;;5096037;28;21599;-42
2021/03/26 05:14:27;;;;;;;27.10;21.87;;;;;;;;;;5107966;28;20743;-43
2021/03/26 05:17:07;;;;;;;26.73;22.77;;;;;;;;;;5108654;28;20653;-43
2021/03/26 05:19:36;;;;;;;30.60;22.37;;;;;;;;;;5108619;28;20599;-44
2021/03/26 05:22:20;;;;;;;30.07;23.60;;;;;;;;;;5108372;28;20603;-43
2021/03/26 05:24:48;;;;;;;26.07;21.73;;;;;;;;;;5106557;28;20603;-43
2021/03/26 05:27:13;;;;;;;28.33;22.20;;;;;;;;;;5107277;28;21196;-43
2021/03/26 05:29:39;;;;;;;27.67;21.13;;;;;;;;;;5099421;28;20612;-42
2021/03/26 05:32:04;;;;;;;29.03;21.03;;;;;;;;;;5102557;28;20270;-42
2021/03/26 05:34:33;;;;;;;27.15;21.48;;;;;;;;;;5104169;28;20647;-42
2021/03/26 05:37:07;;;;;;;25.90;21.13;;;;;;;;;;5103837;28;20202;-42
2021/03/26 05:39:34;;;;;;;25.40;21.20;;;;;;;;;;5100618;28;20593;-43
2021/03/26 05:42:05;;;;;;;28.37;21.13;;;;;;;;;;5104485;28;20648;-43
2021/03/26 05:44:49;;;;;;;29.57;22.93;;;;;;;;;;5104807;28;20602;-42
2021/03/26 05:47:26;;;;;;;27.27;22.93;;;;;;;;;;5098071;28;20650;-42
2021/03/26 05:49:58;;;;;;;29.53;24.07;;;;;;;;;;5102235;28;20964;-43
2021/03/26 05:52:32;;;;;;;26.37;22.60;;;;;;;;;;5104394;28;20664;-42
2021/03/26 05:55:16;;;;;;;35.73;23.83;;;;;;;;;;5103646;28;20657;-42
2021/03/26 05:57:44;;;;;;;31.03;24.40;;;;;;;;;;5103045;28;20602;-42
2021/03/26 06:00:21;;;;;;;28.77;23.10;;;;;;;;;;5104382;28;20590;-43
2021/03/26 06:03:14;;;;;;;34.53;24.77;;;;;;;;;;5098244;28;20617;-42
2021/03/26 06:05:49;;;;;;;27.40;21.60;;;;;;;;;;5097801;28;20680;-43
2021/03/26 06:08:33;;;;;;;28.60;22.90;;;;;;;;;;5102789;28;20595;-43
2021/03/26 06:11:18;;;;;;;28.57;23.50;;;;;;;;;;5100760;28;20987;-43
2021/03/26 06:13:51;;;;;;;34.83;25.30;;;;;;;;;;5102584;28;20709;-43
2021/03/26 06:16:39;;;;;;;30.77;22.97;;;;;;;;;;5101796;28;20617;-45
2021/03/26 06:19:23;;;;;;;29.40;23.27;;;;;;;;;;5103881;28;20583;-42
2021/03/26 06:21:48;;;;;;;29.47;23.93;;;;;;;;;;5099951;28;21531;-43
2021/03/26 06:24:26;;;;;;;27.60;23.73;;;;;;;;;;5107472;28;21184;-43
2021/03/26 06:26:51;;;;;;;25.20;22.10;;;;;;;;;;5112132;28;20181;-43
2021/03/26 06:29:35;;;;;;;31.27;23.65;;;;;;;;;;5107134;28;20736;-43
2021/03/26 06:32:00;;;;;;;29.50;24.60;;;;;;;;;;5106944;28;20225;-43
2021/03/26 06:34:44;;;;;;;31.35;24.50;;;;;;;;;;5107285;28;20735;-43
2021/03/26 06:37:12;;;;;;;31.57;24.93;;;;;;;;;;5108006;28;20170;-43
2021/03/26 06:40:03;;;;;;;27.30;23.00;;;;;;;;;;5110638;28;21167;-43
2021/03/26 06:42:40;;;;;;;32.20;26.10;;;;;;;;;;5107528;28;20663;-43
2021/03/26 06:45:24;;;;;;;26.00;23.17;;;;;;;;;;5111447;28;20586;-42
2021/03/26 06:48:08;;;;;;;29.60;23.43;;;;;;;;;;5103692;28;21222;-42
2021/03/26 06:50:53;;;;;;;31.40;23.03;;;;;;;;;;5110718;27;20668;-42
2021/03/26 06:53:27;;;;;;;30.67;22.63;;;;;;;;;;5110519;28;20641;-42
2021/03/26 06:56:19;;;;;;;32.43;25.80;;;;;;;;;;5101250;28;21008;-43
2021/03/26 06:58:48;;;;;;;33.63;25.93;;;;;;;;;;5109332;27;21397;-43
2021/03/26 07:01:23;;;;;;;36.63;29.30;;;;;;;;;;5108588;28;21372;-43
2021/03/26 07:04:07;;;;;;;33.40;27.13;;;;;;;;;;5109302;28;20601;-43
2021/03/26 07:06:50;;;;;;;37.77;28.17;;;;;;;;;;5109445;28;20601;-41
2021/03/26 07:09:22;;;;;;;33.87;28.03;;;;;;;;;;5100891;28;20605;-43
2021/03/26 07:12:05;;;;;;;33.53;28.27;;;;;;;;;;5099567;28;21106;-42
2021/03/26 07:14:39;;;;;;;35.60;28.00;;;;;;;;;;5102623;28;20659;-42
2021/03/26 07:17:17;;;;;;;38.13;30.37;;;;;;;;;;5106274;28;20688;-42
2021/03/26 07:19:55;;;;;;;35.53;28.33;;;;;;;;;;5107842;27;21176;-42
2021/03/26 07:22:45;;;;;;;34.70;27.93;;;;;;;;;;5102223;27;20617;-43
2021/03/26 07:25:19;;;;;;;35.80;27.70;;;;;;;;;;5107458;27;20610;-43
2021/03/26 07:27:44;;;;;;;35.97;28.77;;;;;;;;;;5102936;28;20619;-43
2021/03/26 07:30:14;;;;;;;38.33;29.87;;;;;;;;;;5106834;28;20980;-43
2021/03/26 07:32:42;;;;;;;37.03;30.47;;;;;;;;;;5105802;28;20275;-42
2021/03/26 07:35:26;;;;;;;35.60;28.73;;;;;;;;;;5103546;28;20610;-42
2021/03/26 07:37:57;;;;;;;35.60;29.43;;;;;;;;;;5101391;28;20614;-43
2021/03/26 07:40:28;;;;;;;35.10;29.20;;;;;;;;;;5095836;28;20619;-43
2021/03/26 07:43:18;;;;;;;35.63;28.20;;;;;;;;;;5102049;28;20598;-43
2021/03/26 07:45:46;;;;;;;37.00;29.90;;;;;;;;;;5103099;28;20638;-43
2021/03/26 07:48:20;;;;;;;35.43;28.80;;;;;;;;;;5106698;27;20670;-43
2021/03/26 07:51:00;;;;;;;34.67;28.93;;;;;;;;;;5096865;27;21241;-44
2021/03/26 07:53:31;;;;;;;38.17;29.60;;;;;;;;;;5107875;27;20649;-44
2021/03/26 07:56:07;;;;;;;33.53;28.03;;;;;;;;;;5105601;27;20690;-43
2021/03/26 07:58:44;;;;;;;36.47;29.97;;;;;;;;;;5106334;28;20602;-42
2021/03/26 08:01:09;;;;;;;36.33;30.13;;;;;;;;;;5107619;28;21159;-43
2021/03/26 08:03:53;;;;;;;34.07;28.40;;;;;;;;;;5108880;28;20598;-47
2021/03/26 08:06:25;;;;;;;34.70;28.27;;;;;;;;;;5113997;27;20183;-43
2021/03/26 08:09:09;;;;;;;34.40;29.00;;;;;;;;;;5109461;28;20633;-43
2021/03/26 08:11:53;;;;;;;38.70;30.20;;;;;;;;;;5110036;28;20575;-43
2021/03/26 08:14:18;;;;;;;33.63;28.23;;;;;;;;;;5109706;28;20626;-42
2021/03/26 08:16:52;;;;;;;33.13;28.92;;;;;;;;;;5109944;28;20604;-43
2021/03/26 08:19:23;;;;;;;38.50;28.70;;;;;;;;;;5109639;28;20180;-43
2021/03/26 08:22:07;;;;;;;37.23;28.47;;;;;;;;;;5109907;28;20588;-42
2021/03/26 08:24:42;;;;;;;36.90;28.83;;;;;;;;;;5109712;28;20572;-43
2021/03/26 08:27:16;;;;;;;35.53;27.13;;;;;;;;;;5109229;28;20682;-43
2021/03/26 08:30:00;;;;;;;35.87;27.37;;;;;;;;;;5109749;28;21118;-43
2021/03/26 08:32:25;;;;;;;33.67;26.27;;;;;;;;;;5109383;28;20663;-43
2021/03/26 08:35:10;;;;;;;31.60;27.13;;;;;;;;;;5109678;28;20641;-43
2021/03/26 08:37:41;;;;;;;29.87;25.53;;;;;;;;;;5108992;28;20170;-43
2021/03/26 08:40:11;;;;;;;36.50;28.13;;;;;;;;;;5102477;28;20625;-43
2021/03/26 08:42:42;;;;;;;31.90;26.17;;;;;;;;;;5108527;28;20603;-44
2021/03/26 08:45:07;;;;;;;34.30;27.37;;;;;;;;;;5109053;28;20663;-43
2021/03/26 08:47:38;;;;;;;30.58;26.35;;;;;;;;;;5109177;28;20691;-44
2021/03/26 08:50:21;;;;;;;36.50;27.07;;;;;;;;;;5109693;28;20175;-43
2021/03/26 08:52:48;;;;;;;33.17;26.67;;;;;;;;;;5109323;28;20565;-44
2021/03/26 08:55:19;;;;;;;31.20;26.83;;;;;;;;;;5109108;27;20662;-43
2021/03/26 08:58:09;;;;;;;38.53;26.10;;;;;;;;;;5108752;28;20588;-43
2021/03/26 09:00:39;;;;;;;35.53;27.57;;;;;;;;;;5109272;28;20556;-43
2021/03/26 09:03:07;;;;;;;28.57;24.53;;;;;;;;;;5109037;28;21172;-43
2021/03/26 09:05:35;;;;;;;32.73;26.03;;;;;;;;;;5108999;28;20573;-43
2021/03/26 09:08:05;;;;;;;30.38;25.58;;;;;;;;;;5107343;28;24493;-43
2021/03/26 09:10:56;;;;;;;28.87;25.73;;;;;;;;;;5109168;28;20174;-44
2021/03/26 09:13:21;;;;;;;32.63;25.10;;;;;;;;;;5108751;28;21228;-42
2021/03/26 09:15:52;;;;;;;28.08;25.02;;;;;;;;;;5109191;28;20937;-42
2021/03/26 09:18:37;;;;;;;27.13;23.87;;;;;;;;;;5108338;28;20748;-44
2021/03/26 09:21:28;;;;;;;28.53;23.70;;;;;;;;;;5109125;28;20944;-43
2021/03/26 09:24:08;;;;;;;32.10;23.50;;;;;;;;;;5084501;28;21466;-43
2021/03/26 09:26:46;;;;;;;27.93;22.93;;;;;;;;;;5098957;28;20594;-43
2021/03/26 09:29:18;;;;;;;28.27;23.90;;;;;;;;;;5110441;28;20610;-43
2021/03/26 09:31:46;;;;;;;26.87;21.30;;;;;;;;;;5108591;28;20592;-44
2021/03/26 09:34:18;;;;;;;26.37;22.23;;;;;;;;;;5108686;28;21036;-43
2021/03/26 09:36:44;;;;;;;27.43;23.20;;;;;;;;;;5108566;28;20569;-44
2021/03/26 09:39:13;;;;;;;27.43;22.93;;;;;;;;;;5108403;28;20652;-43
2021/03/26 09:41:47;;;;;;;27.10;22.80;;;;;;;;;;5108416;28;20745;-44
2021/03/26 09:44:31;;;;;;;26.80;22.07;;;;;;;;;;5108637;28;20587;-43
2021/03/26 09:47:02;;;;;;;27.33;21.90;;;;;;;;;;5108272;28;20601;-43
2021/03/26 09:49:37;;;;;;;31.10;21.87;;;;;;;;;;5108093;28;20645;-44
2021/03/26 09:52:12;;;;;;;28.23;23.20;;;;;;;;;;5108578;28;21200;-44
2021/03/26 09:54:41;;;;;;;28.13;23.30;;;;;;;;;;5108224;28;20627;-43
2021/03/26 09:57:25;;;;;;;27.53;22.17;;;;;;;;;;5107556;28;21227;-44
2021/03/26 09:59:59;;;;;;;24.40;21.20;;;;;;;;;;5108390;28;20609;-43
2021/03/26 10:02:39;;;;;;;26.10;23.40;;;;;;;;;;5108090;28;20601;-45
2021/03/26 10:05:13;;;;;;;25.60;22.87;;;;;;;;;;5108083;28;20585;-44
2021/03/26 10:07:42;;;;;;;23.83;21.23;;;;;;;;;;5087966;28;20655;-44
2021/03/26 10:13:00;;;;;;;23.53;20.27;;;;;;;;;;5073732;28;20613;-43
2021/03/26 10:15:25;;;;;;;;;;;;;;;;;;5092275;28;20718;-42
2021/03/26 10:17:50;;;;;;;;;;;;;;;;;;5112380;27;20006;-43
2021/03/26 10:20:20;;;;;;;21.40;19.17;;;;;;;;;;5111214;28;20672;-48
2021/03/26 10:22:49;;;;;;;23.70;21.10;;;;;;;;;;5111849;28;20207;-45
2021/03/26 10:25:21;;;;;;;24.60;20.93;;;;;;;;;;5112170;28;20645;-44
2021/03/26 10:27:54;;;;;;;20.77;18.57;;;;;;;;;;5111681;28;20607;-43
2021/03/26 10:30:23;;;;;;;21.90;18.67;;;;;;;;;;5112077;28;21155;-44
2021/03/26 10:32:49;;;;;;;20.63;18.20;;;;;;;;;;5111307;28;20606;-43
2021/03/26 10:35:23;;;;;;;19.80;17.70;;;;;;;;;;5112004;28;20631;-43
2021/03/26 10:38:00;;;;;;;21.30;16.20;;;;;;;;;;5111890;28;20286;-43
2021/03/26 10:40:43;;;;;;;17.70;15.80;;;;;;;;;;5111613;28;20971;-43
2021/03/26 10:43:17;;;;;;;19.73;16.20;;;;;;;;;;5112245;27;20594;-44
2021/03/26 10:45:46;;;;;;;16.87;15.17;;;;;;;;;;5111510;28;21154;-44
2021/03/26 10:48:24;;;;;;;13.83;12.43;;;;;;;;;;5111808;28;20588;-44
2021/03/26 10:51:07;;;;;;;12.80;11.40;;;;;;;;;;5112026;28;20579;-44
2021/03/26 10:53:37;;;;;;;13.40;11.10;;;;;;;;;;5111445;28;20621;-44
2021/03/26 10:56:13;;;;;;;11.40;10.13;;;;;;;;;;5111282;28;20626;-43
2021/03/26 10:58:39;;;;;;;11.13;10.00;;;;;;;;;;5111367;28;20619;-43
2021/03/26 11:01:05;;;;;;;;;;;;;;;;;;5111857;28;20951;-44
2021/03/26 11:03:30;;;;;;;;;;;;;;;;;;5111827;28;19960;-43
2021/03/26 11:05:55;;;;;;;;;;;;;;;;;;5111595;28;19910;-44
2021/03/26 11:08:36;;;;;;;10.70;9.60;;;;;;;;;;5111074;28;20174;-43
2021/03/26 11:11:01;;;;;;;;;;;;;;;;;;5112075;28;20627;-43
2021/03/26 11:13:26;;;;;;;;;;;;;;;;;;5112904;27;20247;-42
2021/03/26 11:15:51;;;;;;;;;;;;;;;;;;5111878;28;20377;-43
2021/03/26 11:18:33;;;;;;;11.55;8.95;;;;;;;;;;5110675;28;20181;-44
2021/03/26 11:21:03;;;;;;;8.93;8.07;;;;;;;;;;5111118;28;20240;-44
2021/03/26 11:23:30;;;;;;;12.73;10.20;;;;;;;;;;5109764;28;20620;-45
2021/03/26 11:26:04;;;;;;;13.93;10.27;;;;;;;;;;5110567;28;20613;-44
2021/03/26 11:28:40;;;;;;;9.87;8.97;;;;;;;;;;5110663;28;21177;-44
2021/03/26 11:31:24;;;;;;;9.13;8.33;;;;;;;;;;5109753;28;24393;-44
2021/03/26 11:34:07;;;;;;;10.37;9.37;;;;;;;;;;5109196;28;24568;-44
2021/03/26 11:36:39;;;;;;;8.87;7.97;;;;;;;;;;5110723;28;20577;-44
2021/03/26 11:39:08;;;;;;;10.03;9.13;;;;;;;;;;5110879;28;20604;-44
2021/03/26 11:41:36;;;;;;;9.97;8.97;;;;;;;;;;5110652;28;20613;-43
2021/03/26 11:44:03;;;;;;;10.03;9.07;;;;;;;;;;5110252;28;20605;-44
2021/03/26 11:46:35;;;;;;;10.57;8.63;;;;;;;;;;5110446;28;20582;-42
2021/03/26 11:49:03;;;;;;;9.33;8.40;;;;;;;;;;5110650;28;20583;-42
2021/03/26 11:51:38;;;;;;;6.57;5.97;;;;;;;;;;5109309;28;24390;-44
2021/03/26 11:54:03;;;;;;;9.97;8.63;;;;;;;;;;5110213;28;21114;-44
2021/03/26 11:56:39;;;;;;;10.67;7.40;;;;;;;;;;5109776;28;20639;-44
2021/03/26 11:59:10;;;;;;;8.43;7.43;;;;;;;;;;5110255;28;20181;-44
2021/03/26 12:01:45;;;;;;;6.20;5.60;;;;;;;;;;5108753;28;24497;-44
2021/03/26 12:04:16;;;;;;;6.67;5.20;;;;;;;;;;5089967;28;20259;-44
2021/03/26 12:06:50;;;;;;;6.70;5.60;;;;;;;;;;5089597;28;20580;-42
2021/03/26 12:09:22;;;;;;;7.10;5.40;;;;;;;;;;5089750;28;20598;-45
2021/03/26 12:12:00;;;;;;;5.10;4.50;;;;;;;;;;5088458;28;24402;-42
2021/03/26 12:14:38;;;;;;;7.38;5.05;;;;;;;;;;5107839;28;24975;-43
2021/03/26 12:17:05;;;;;;;5.47;4.90;;;;;;;;;;5108460;28;24459;-44
2021/03/26 12:19:32;;;;;;;7.35;6.55;;;;;;;;;;5108475;28;24393;-43
2021/03/26 12:22:15;;;;;;;7.25;6.60;;;;;;;;;;5108544;28;24394;-43
2021/03/26 12:25:00;;;;;;;9.57;7.20;;;;;;;;;;5108899;28;20647;-44
2021/03/26 12:27:32;;;;;;;10.43;8.53;;;;;;;;;;5091219;28;20689;-43
2021/03/26 12:30:25;;;;;;;8.00;7.20;;;;;;;;;;5109554;28;20682;-43
2021/03/26 12:32:56;;;;;;;7.60;6.60;;;;;;;;;;5105222;28;20605;-44
2021/03/26 12:35:24;;;;;;;10.87;7.80;;;;;;;;;;5108905;28;21153;-44
2021/03/26 12:37:55;;;;;;;9.43;8.50;;;;;;;;;;5109539;28;20940;-44
2021/03/26 12:40:36;;;;;;;11.23;8.20;;;;;;;;;;5109311;28;20592;-44
2021/03/26 12:43:10;;;;;;;9.83;7.60;;;;;;;;;;5109115;28;20650;-43
2021/03/26 12:45:38;;;;;;;15.73;10.30;;;;;;;;;;5109036;28;20590;-44
2021/03/26 12:48:07;;;;;;;10.47;8.70;;;;;;;;;;5109264;28;20603;-44
2021/03/26 12:50:45;;;;;;;11.00;9.90;;;;;;;;;;5109122;28;20964;-44
2021/03/26 12:53:21;;;;;;;11.60;8.93;;;;;;;;;;5109039;28;20610;-44
2021/03/26 12:55:53;;;;;;;9.80;8.80;;;;;;;;;;5108798;28;20651;-43
2021/03/26 12:58:21;;;;;;;10.57;9.50;;;;;;;;;;5108856;27;21213;-44
2021/03/26 13:00:49;;;;;;;12.30;10.33;;;;;;;;;;5109193;28;20574;-44
2021/03/26 13:03:33;;;;;;;19.03;10.67;;;;;;;;;;5109264;28;20594;-44
2021/03/26 13:06:08;;;;;;;12.93;11.33;;;;;;;;;;5109062;28;20577;-44
2021/03/26 13:08:35;;;;;;;11.87;10.60;;;;;;;;;;5108911;28;21024;-44
2021/03/26 13:11:05;;;;;;;13.00;11.73;;;;;;;;;;5108687;28;20588;-44
2021/03/26 13:13:49;;;;;;;13.80;12.40;;;;;;;;;;5108390;28;20624;-44
2021/03/26 13:16:36;;;;;;;13.00;11.80;;;;;;;;;;5109067;28;20589;-43
2021/03/26 13:19:03;;;;;;;12.20;11.00;;;;;;;;;;5108723;28;20602;-44
2021/03/26 13:21:31;;;;;;;15.50;12.60;;;;;;;;;;5108651;28;20601;-45
2021/03/26 13:24:08;;;;;;;13.73;12.50;;;;;;;;;;5108584;28;20600;-42
2021/03/26 13:26:36;;;;;;;15.33;13.80;;;;;;;;;;5108537;28;20586;-44
2021/03/26 13:29:05;;;;;;;15.97;13.97;;;;;;;;;;5108275;28;20603;-43
2021/03/26 13:31:35;;;;;;;15.67;13.00;;;;;;;;;;5090267;28;20665;-43
2021/03/26 13:34:19;;;;;;;15.35;13.85;;;;;;;;;;5106399;28;24494;-43
2021/03/26 13:37:03;;;;;;;14.50;13.00;;;;;;;;;;5108312;28;20188;-44
2021/03/26 13:39:31;;;;;;;16.30;14.60;;;;;;;;;;5108483;28;20694;-44
2021/03/26 13:42:15;;;;;;;16.97;14.57;;;;;;;;;;5108463;28;20632;-44
2021/03/26 13:44:58;;;;;;;15.20;13.70;;;;;;;;;;5108057;28;20620;-44
2021/03/26 13:47:44;;;;;;;19.00;17.10;;;;;;;;;;5090967;28;20672;-43
2021/03/26 13:50:12;;;;;;;19.00;16.53;;;;;;;;;;5113034;28;20590;-46
2021/03/26 13:52:44;;;;;;;19.20;17.30;;;;;;;;;;5112079;28;20601;-43
2021/03/26 13:55:18;;;;;;;16.90;15.20;;;;;;;;;;5112519;28;20646;-44
2021/03/26 13:57:44;;;;;;;16.87;15.13;;;;;;;;;;5112141;28;21241;-43
2021/03/26 14:00:10;;;;;;;16.70;15.07;;;;;;;;;;5112895;28;20653;-44
2021/03/26 14:02:37;;;;;;;19.90;16.00;;;;;;;;;;5112271;28;21020;-44
2021/03/26 14:05:07;;;;;;;17.73;15.83;;;;;;;;;;5112521;28;20175;-44
2021/03/26 14:07:36;;;;;;;21.07;18.97;;;;;;;;;;5112022;28;20583;-45
2021/03/26 14:10:10;;;;;;;18.87;16.90;;;;;;;;;;5111394;28;20603;-44
2021/03/26 14:12:38;;;;;;;21.33;19.10;;;;;;;;;;5112512;28;20659;-43
2021/03/26 14:15:23;;;;;;;18.57;16.67;;;;;;;;;;5112215;28;21231;-44
2021/03/26 14:18:05;;;;;;;23.70;21.00;;;;;;;;;;5105329;28;21230;-45
2021/03/26 14:20:36;;;;;;;22.33;19.93;;;;;;;;;;5103409;28;20603;-44
2021/03/26 14:23:11;;;;;;;19.73;17.73;;;;;;;;;;5111384;28;21003;-44
2021/03/26 14:25:46;;;;;;;21.77;19.00;;;;;;;;;;5110825;28;20972;-44
2021/03/26 14:28:19;;;;;;;17.43;15.73;;;;;;;;;;5106993;28;21242;-44
2021/03/26 14:30:56;;;;;;;18.07;15.90;;;;;;;;;;5109210;28;20594;-45
2021/03/26 14:33:30;;;;;;;29.97;26.97;;;;;;;;;;5106630;28;20636;-44
2021/03/26 14:35:57;;;;;;;26.90;23.70;;;;;;;;;;5111537;28;20596;-44
2021/03/26 14:38:27;;;;;;;21.93;19.23;;;;;;;;;;5111524;28;20585;-44
2021/03/26 14:41:11;;;;;;;22.17;19.80;;;;;;;;;;5091352;28;20618;-44
2021/03/26 14:43:37;;;;;;;21.53;19.10;;;;;;;;;;5104977;27;20618;-45
2021/03/26 14:46:03;;;;;;;22.13;19.07;;;;;;;;;;5107921;28;20612;-47
2021/03/26 14:48:39;;;;;;;25.40;20.30;;;;;;;;;;5092786;28;20199;-45
2021/03/26 14:51:07;;;;;;;22.10;19.80;;;;;;;;;;5102163;28;20271;-45
2021/03/26 14:53:37;;;;;;;23.50;19.33;;;;;;;;;;5102768;28;20673;-44